Time;durP1;ratioP1;P1;durP2;ratioP2;P2;SDS_P1;SDS_P2;PMS_P1;PMS_P2;Temp;Humidity;BMP_temperature;BMP_pressure;BME280_temperature;BME280_humidity;BME280_pressure;Samples;Min_cycle;Max_cycle;Signal;HPM_P1;HPM_P2
2021/10/14 00:01:29;;;;;;;3.65;1.83;;;;;;;8.93;100.00;101633.78;6143789;23;20096;-85
2021/10/14 00:03:56;;;;;;;3.00;2.00;;;;;;;8.91;100.00;101627.66;6118510;23;20165;-85
2021/10/14 00:06:23;;;;;;;6.75;1.92;;;;;;;8.92;100.00;101629.41;6142344;23;20041;-85
2021/10/14 00:08:49;;;;;;;3.60;2.22;;;;;;;8.94;100.00;101631.19;6144308;23;20021;-85
2021/10/14 00:11:16;;;;;;;1.77;1.40;;;;;;;8.93;100.00;101637.25;6118490;23;20021;-85
2021/10/14 00:13:43;;;;;;;1.63;1.52;;;;;;;8.91;100.00;101619.81;6119478;23;20282;-85
2021/10/14 00:16:10;;;;;;;2.17;1.95;;;;;;;8.92;100.00;101627.66;6142988;23;20022;-85
2021/10/14 00:18:37;;;;;;;2.00;1.80;;;;;;;8.93;100.00;101637.25;6118645;23;20513;-85
2021/10/14 00:21:04;;;;;;;3.25;1.80;;;;;;;8.96;100.00;101632.91;6118952;23;20696;-85
2021/10/14 00:23:31;;;;;;;2.40;2.13;;;;;;;8.94;100.00;101623.34;6117756;23;20026;-86
2021/10/14 00:26:30;;;;;;;2.22;1.73;;;;;;;9.01;100.00;101620.81;6143475;23;20334;-85
2021/10/14 00:28:59;;;;;;;3.00;2.33;;;;;;;9.01;100.00;101616.47;6116389;23;20025;-85
2021/10/14 00:31:25;;;;;;;3.15;1.67;;;;;;;9.04;100.00;101599.97;6118437;23;20037;-85
2021/10/14 00:33:54;;;;;;;2.13;1.60;;;;;;;9.04;100.00;101613.03;6115532;23;20029;-85
2021/10/14 00:36:20;;;;;;;2.80;1.90;;;;;;;9.01;100.00;101603.41;6143542;23;20575;-85
2021/10/14 00:38:47;;;;;;;3.30;1.88;;;;;;;9.01;100.00;101611.25;6119641;23;20348;-85
2021/10/14 00:41:17;;;;;;;1.83;1.73;;;;;;;9.02;100.00;101609.50;6116100;23;20049;-85
2021/10/14 00:43:44;;;;;;;2.67;1.63;;;;;;;9.07;100.00;101613.06;6121271;23;20685;-85
2021/10/14 00:46:18;;;;;;;2.00;1.90;;;;;;;9.10;100.00;101606.13;6115216;23;20025;-85
2021/10/14 00:48:45;;;;;;;2.53;1.80;;;;;;;9.07;100.00;101611.34;6118703;23;20369;-84
2021/10/14 00:51:12;;;;;;;2.45;2.25;;;;;;;9.04;100.00;101615.63;6140513;23;20021;-85
2021/10/14 00:53:40;;;;;;;3.13;1.85;;;;;;;9.03;100.00;101606.03;6117856;23;20560;-85
2021/10/14 00:56:08;;;;;;;2.05;1.90;;;;;;;9.04;100.00;101602.56;6142126;23;20084;-85
2021/10/14 00:58:36;;;;;;;3.30;2.22;;;;;;;9.08;100.00;101602.63;6116908;23;20025;-85
2021/10/14 01:01:05;;;;;;;2.95;2.25;;;;;;;9.13;100.00;101609.66;6117317;23;20033;-85
2021/10/14 01:03:33;;;;;;;1.95;1.70;;;;;;;9.12;100.00;101600.94;6117406;23;20025;-85
2021/10/14 01:06:00;;;;;;;2.47;1.98;;;;;;;9.10;100.00;101602.66;6116752;23;20064;-85
2021/10/14 01:08:26;;;;;;;7.35;2.40;;;;;;;9.07;100.00;101605.22;6116484;23;20025;-85
2021/10/14 01:10:53;;;;;;;4.15;2.58;;;;;;;9.07;100.00;101598.28;6118480;23;20031;-85
2021/10/14 01:13:20;;;;;;;3.90;2.20;;;;;;;9.09;100.00;101588.72;6144109;23;20022;-85
2021/10/14 01:15:47;;;;;;;2.58;2.38;;;;;;;9.12;100.00;101598.31;6113127;23;20096;-85
2021/10/14 01:18:15;;;;;;;5.57;3.08;;;;;;;9.14;100.00;101594.00;6143136;23;20036;-85
2021/10/14 01:20:43;;;;;;;3.45;2.78;;;;;;;9.15;100.00;101592.25;6140320;23;20040;-85
2021/10/14 01:23:10;;;;;;;2.67;2.47;;;;;;;9.13;100.00;101580.94;6120331;23;20120;-85
2021/10/14 01:25:36;;;;;;;3.47;3.17;;;;;;;9.14;100.00;101583.56;6139212;23;20021;-85
2021/10/14 01:28:03;;;;;;;4.20;2.75;;;;;;;9.17;100.00;101585.31;6120393;23;20021;-85
2021/10/14 01:30:29;;;;;;;4.45;2.65;;;;;;;9.20;100.00;101583.59;6117764;23;20018;-85
2021/10/14 01:32:56;;;;;;;3.95;2.85;;;;;;;9.22;100.00;101581.91;6115605;23;20021;-85
2021/10/14 01:35:23;;;;;;;6.43;3.22;;;;;;;9.22;100.00;101576.66;6139808;23;20038;-85
2021/10/14 01:37:49;;;;;;;2.95;2.72;;;;;;;9.26;100.00;101572.38;6140275;23;20869;-85
2021/10/14 01:40:19;;;;;;;6.00;2.88;;;;;;;9.25;100.00;101574.09;6142194;23;20021;-85
2021/10/14 01:42:54;;;;;;;3.95;3.65;;;;;;;9.26;100.00;101565.38;6118470;23;20029;-86
2021/10/14 01:45:21;;;;;;;4.93;3.58;;;;;;;9.25;100.00;101568.00;6117536;23;20517;-85
2021/10/14 01:47:47;;;;;;;5.95;4.70;;;;;;;9.22;100.00;101568.84;6143172;23;20032;-85
2021/10/14 01:50:14;;;;;;;5.85;4.18;;;;;;;9.21;100.00;101574.91;6116102;23;20036;-85
2021/10/14 01:52:40;;;;;;;5.05;3.63;;;;;;;9.20;100.00;101577.50;6119027;23;20075;-86
2021/10/14 01:55:07;;;;;;;5.25;3.17;;;;;;;9.21;100.00;101571.44;6116282;23;20814;-85
2021/10/14 01:57:34;;;;;;;5.40;3.63;;;;;;;9.21;100.00;101571.44;6144650;23;20021;-85
2021/10/14 02:00:00;;;;;;;4.78;4.22;;;;;;;9.21;100.00;101567.06;6118925;23;20129;-85
2021/10/14 02:02:29;;;;;;;3.90;3.58;;;;;;;9.26;100.00;101564.53;6077728;23;20101;-85
2021/10/14 02:04:56;;;;;;;5.43;4.13;;;;;;;9.27;100.00;101561.94;6142874;23;20116;-85
2021/10/14 02:07:22;;;;;;;4.95;4.47;;;;;;;9.32;100.00;101566.31;6116507;23;20764;-85
2021/10/14 02:09:49;;;;;;;8.68;4.70;;;;;;;9.36;100.00;101569.00;6145398;23;20048;-85
2021/10/14 02:12:15;;;;;;;6.35;4.18;;;;;;;9.44;100.00;101571.69;6116889;23;20054;-85
2021/10/14 02:14:42;;;;;;;7.57;4.32;;;;;;;9.48;100.00;101569.97;6116346;23;20113;-85
2021/10/14 02:17:08;;;;;;;7.55;4.80;;;;;;;9.46;100.00;101574.31;6118849;23;20036;-85
2021/10/14 02:19:37;;;;;;;4.60;4.15;;;;;;;9.44;100.00;101562.09;6138815;23;20330;-86
2021/10/14 02:22:04;;;;;;;4.75;4.10;;;;;;;9.48;100.00;101565.63;6143876;23;20318;-86
2021/10/14 02:24:31;;;;;;;8.50;5.55;;;;;;;9.48;100.00;101562.13;6115901;23;20026;-86
2021/10/14 02:26:58;;;;;;;6.82;4.78;;;;;;;9.48;100.00;101556.91;6119211;23;20105;-85
2021/10/14 02:29:24;;;;;;;7.07;5.15;;;;;;;9.47;100.00;101552.56;6140822;23;20136;-85
2021/10/14 02:31:51;;;;;;;7.65;5.43;;;;;;;9.52;100.00;101558.72;6145452;23;20040;-85
2021/10/14 02:34:18;;;;;;;8.73;6.03;;;;;;;9.55;100.00;101551.75;6120193;23;20729;-85
2021/10/14 02:36:45;;;;;;;7.13;5.13;;;;;;;9.57;100.00;101563.09;6145807;23;20088;-86
2021/10/14 02:39:11;;;;;;;6.70;5.45;;;;;;;9.60;100.00;101565.75;6118693;23;20103;-85
2021/10/14 02:41:40;;;;;;;7.05;5.38;;;;;;;9.63;100.00;101564.03;6147312;23;20017;-85
2021/10/14 02:44:07;;;;;;;9.75;7.05;;;;;;;9.66;100.00;101570.16;6120242;23;20057;-86
2021/10/14 02:46:33;;;;;;;7.60;5.15;;;;;;;9.65;100.00;101573.63;6141781;23;20076;-86
2021/10/14 02:49:00;;;;;;;9.48;5.55;;;;;;;9.67;100.00;101566.66;6144548;23;20080;-85
2021/10/14 02:51:28;;;;;;;11.05;6.35;;;;;;;9.67;100.00;101576.25;6118127;23;20353;-86
2021/10/14 02:53:55;;;;;;;9.57;6.28;;;;;;;9.65;100.00;101576.25;6118995;23;20029;-86
2021/10/14 02:56:21;;;;;;;10.02;6.93;;;;;;;9.64;100.00;101573.63;6141885;23;20032;-85
2021/10/14 02:58:48;;;;;;;9.13;7.13;;;;;;;9.64;100.00;101581.47;6144049;23;20821;-85
2021/10/14 03:01:15;;;;;;;11.52;7.18;;;;;;;9.63;100.00;101583.19;6120420;23;20132;-85
2021/10/14 03:03:41;;;;;;;10.05;7.05;;;;;;;9.61;100.00;101579.72;6116832;23;20029;-85
2021/10/14 03:06:08;;;;;;;14.40;8.35;;;;;;;9.60;100.00;101583.16;6118177;23;20026;-85
2021/10/14 03:08:34;;;;;;;10.70;7.35;;;;;;;9.60;100.00;101583.16;6117910;23;20129;-85
2021/10/14 03:11:01;;;;;;;12.63;8.75;;;;;;;9.58;100.00;101579.66;6120705;23;20026;-86
2021/10/14 03:13:28;;;;;;;11.63;8.40;;;;;;;9.56;100.00;101571.81;6118369;23;20025;-85
2021/10/14 03:15:54;;;;;;;17.33;8.27;;;;;;;9.58;100.00;101577.94;6141069;23;20030;-85
2021/10/14 03:18:21;;;;;;;11.68;8.77;;;;;;;9.67;100.00;101576.25;6122486;23;20057;-86
2021/10/14 03:20:48;;;;;;;16.50;9.55;;;;;;;9.69;100.00;101572.81;6141933;23;20037;-86
2021/10/14 03:23:14;;;;;;;10.60;9.00;;;;;;;9.72;100.00;101571.97;6144079;23;20052;-86
2021/10/14 03:25:41;;;;;;;15.55;9.10;;;;;;;9.73;100.00;101561.50;6140458;23;20022;-86
2021/10/14 03:28:08;;;;;;;13.05;8.88;;;;;;;9.76;100.00;101568.50;6144177;23;20100;-86
2021/10/14 03:30:34;;;;;;;16.25;9.98;;;;;;;9.77;100.00;101565.03;6116200;23;20025;-86
2021/10/14 03:33:01;;;;;;;17.25;9.70;;;;;;;9.75;100.00;101564.13;6145848;23;20087;-86
2021/10/14 03:35:27;;;;;;;12.07;9.60;;;;;;;9.77;100.00;101560.66;6119597;23;20375;-86
2021/10/14 03:37:56;;;;;;;18.20;10.73;;;;;;;9.77;100.00;101557.19;6141824;23;20049;-85
2021/10/14 03:40:26;;;;;;;14.20;8.95;;;;;;;9.81;100.00;101551.13;6119463;23;20032;-86
2021/10/14 03:42:52;;;;;;;14.02;9.68;;;;;;;9.84;100.00;101556.41;6118370;23;20060;-85
2021/10/14 03:45:19;;;;;;;10.70;8.50;;;;;;;9.85;100.00;101555.50;6119009;23;20029;-85
2021/10/14 03:47:53;;;;;;;12.98;9.70;;;;;;;9.89;100.00;101559.88;6120174;23;20338;-86
2021/10/14 03:50:20;;;;;;;16.25;9.65;;;;;;;9.90;100.00;101553.81;6141986;23;20032;-85
2021/10/14 03:52:46;;;;;;;17.67;10.60;;;;;;;9.86;100.00;101552.03;6145300;23;20026;-86
2021/10/14 03:55:13;;;;;;;15.20;11.02;;;;;;;9.88;100.00;101554.66;6117084;23;20618;-86
2021/10/14 03:57:39;;;;;;;14.98;11.57;;;;;;;9.86;100.00;101551.16;6121430;23;20116;-85
2021/10/14 04:00:08;;;;;;;14.55;10.13;;;;;;;9.88;100.00;101557.28;6142542;23;20444;-86
2021/10/14 04:02:35;;;;;;;16.88;11.27;;;;;;;9.89;100.00;101557.28;6115308;23;20587;-86
2021/10/14 04:05:03;;;;;;;13.40;10.57;;;;;;;9.86;100.00;101554.66;6086977;23;20032;-86
2021/10/14 04:07:29;;;;;;;15.95;11.88;;;;;;;9.79;100.00;101557.19;6090225;23;20232;-86
2021/10/14 04:09:57;;;;;;;14.20;11.20;;;;;;;9.76;100.00;101556.31;6113386;23;20048;-85
2021/10/14 04:12:23;;;;;;;20.15;12.05;;;;;;;9.73;100.00;101564.13;6091227;23;20033;-85
2021/10/14 04:14:50;;;;;;;13.27;10.45;;;;;;;9.72;100.00;101558.88;6088930;23;20053;-85
2021/10/14 04:17:17;;;;;;;14.25;10.95;;;;;;;9.73;100.00;101556.28;6111106;23;20025;-85
2021/10/14 04:19:44;;;;;;;18.67;11.45;;;;;;;9.71;100.00;101557.13;6117156;23;20021;-85
2021/10/14 04:22:11;;;;;;;20.45;11.43;;;;;;;9.70;100.00;101550.13;6117376;23;20072;-85
2021/10/14 04:24:38;;;;;;;18.00;11.43;;;;;;;9.67;100.00;101548.38;6142752;23;20761;-85
2021/10/14 04:27:06;;;;;;;14.70;10.82;;;;;;;9.63;100.00;101556.19;6141895;23;20020;-85
2021/10/14 04:29:33;;;;;;;18.60;11.88;;;;;;;9.63;100.00;101561.41;6119448;23;20021;-86
2021/10/14 04:32:01;;;;;;;13.80;10.90;;;;;;;9.62;100.00;101557.94;6144072;23;20115;-85
2021/10/14 04:34:28;;;;;;;13.75;10.20;;;;;;;9.64;100.00;101553.59;6117546;23;20030;-86
2021/10/14 04:36:55;;;;;;;12.93;10.32;;;;;;;9.66;100.00;101558.81;6144962;23;20013;-85
2021/10/14 04:39:28;;;;;;;13.57;10.82;;;;;;;9.64;100.00;101568.41;6116764;23;20045;-85
2021/10/14 04:41:54;;;;;;;15.40;10.13;;;;;;;9.63;100.00;101559.66;6122533;23;20035;-85
2021/10/14 04:44:21;;;;;;;14.45;11.10;;;;;;;9.63;100.00;101562.28;6118270;23;20021;-85
2021/10/14 04:46:47;;;;;;;16.25;11.25;;;;;;;9.62;100.00;101562.28;6119036;23;20051;-85
2021/10/14 04:49:15;;;;;;;17.15;10.77;;;;;;;9.62;100.00;101552.72;6123321;23;20821;-85
2021/10/14 04:51:41;;;;;;;16.02;10.95;;;;;;;9.64;100.00;101555.34;6141503;23;20056;-85
2021/10/14 04:54:08;;;;;;;15.63;10.25;;;;;;;9.66;100.00;101556.19;6117653;23;20061;-85
2021/10/14 04:56:34;;;;;;;14.60;11.23;;;;;;;9.69;100.00;101551.03;6118396;23;20022;-85
2021/10/14 04:59:01;;;;;;;13.05;10.27;;;;;;;9.68;100.00;101550.13;6143692;23;20101;-86
2021/10/14 05:01:27;;;;;;;16.35;11.10;;;;;;;9.72;100.00;101554.50;6141603;23;20076;-85
2021/10/14 05:03:54;;;;;;;15.00;11.45;;;;;;;9.76;100.00;101558.94;6118624;23;20032;-85
2021/10/14 05:06:21;;;;;;;15.27;11.07;;;;;;;9.81;100.00;101558.09;6120083;23;20001;-85
2021/10/14 05:08:47;;;;;;;16.30;10.70;;;;;;;9.81;100.00;101571.16;6141627;23;20021;-85
2021/10/14 05:11:15;;;;;;;14.00;11.15;;;;;;;9.81;100.00;101558.97;6144523;23;20092;-85
2021/10/14 05:13:42;;;;;;;16.90;10.52;;;;;;;9.83;100.00;101570.31;6118564;23;20060;-85
2021/10/14 05:16:09;;;;;;;16.95;11.32;;;;;;;9.83;100.00;101567.72;6107992;23;20764;-85
2021/10/14 05:18:45;;;;;;;19.00;11.15;;;;;;;9.84;100.00;101573.81;6090981;23;20386;-85
2021/10/14 05:21:11;;;;;;;17.80;11.45;;;;;;;9.85;100.00;101568.56;6091493;23;20053;-85
2021/10/14 05:23:38;;;;;;;18.92;11.00;;;;;;;9.87;100.00;101569.47;6110584;23;20049;-85
2021/10/14 05:26:05;;;;;;;19.23;11.23;;;;;;;9.89;100.00;101569.50;6112420;23;20041;-85
2021/10/14 05:28:33;;;;;;;16.42;11.88;;;;;;;9.91;100.00;101570.38;6090574;23;20449;-85
2021/10/14 05:31:00;;;;;;;16.67;11.65;;;;;;;9.95;100.00;101577.41;6121941;23;20033;-85
2021/10/14 05:33:27;;;;;;;15.35;11.52;;;;;;;9.95;100.00;101569.56;6119601;23;20021;-85
2021/10/14 05:36:11;;;;;;;19.73;12.48;;;;;;;9.98;100.00;101569.56;6120365;23;20025;-85
2021/10/14 05:38:38;;;;;;;15.63;10.98;;;;;;;10.01;100.00;101576.56;6119528;23;20083;-86
2021/10/14 05:41:07;;;;;;;18.27;11.52;;;;;;;10.04;100.00;101577.47;6119491;23;20115;-85
2021/10/14 05:43:34;;;;;;;14.98;11.23;;;;;;;10.05;100.00;101568.75;6143265;23;20515;-86
2021/10/14 05:46:00;;;;;;;20.65;12.38;;;;;;;10.06;100.00;101578.38;6134059;23;20057;-84
2021/10/14 05:48:29;;;;;;;17.35;11.13;;;;;;;10.08;100.00;101575.75;6089383;23;20021;-85
2021/10/14 05:50:56;;;;;;;23.85;12.20;;;;;;;10.07;100.00;101571.38;6114292;23;20021;-85
2021/10/14 05:53:23;;;;;;;13.98;11.43;;;;;;;10.09;100.00;101581.00;6091525;23;20026;-85
2021/10/14 05:55:49;;;;;;;17.08;12.32;;;;;;;10.10;100.00;101574.00;6093877;23;20179;-84
2021/10/14 05:58:16;;;;;;;15.30;12.60;;;;;;;10.13;100.00;101578.41;6095272;23;20038;-83
2021/10/14 06:00:43;;;;;;;17.17;13.10;;;;;;;10.17;100.00;101569.69;6088864;23;20029;-85
2021/10/14 06:03:10;;;;;;;17.50;12.55;;;;;;;10.19;100.00;101573.22;6115003;23;20045;-85
2021/10/14 06:05:36;;;;;;;19.42;12.90;;;;;;;10.19;100.00;101567.97;6088667;23;20683;-85
2021/10/14 06:08:06;;;;;;;16.38;12.82;;;;;;;10.18;100.00;101568.84;6115080;23;20089;-85
2021/10/14 06:10:33;;;;;;;22.58;14.77;;;;;;;10.21;100.00;101559.28;6112805;23;20018;-86
2021/10/14 06:13:00;;;;;;;22.40;12.90;;;;;;;10.24;100.00;101556.66;6090777;23;20054;-86
2021/10/14 06:15:26;;;;;;;18.48;12.23;;;;;;;10.25;100.00;101550.59;6093021;23;20029;-85
2021/10/14 06:17:56;;;;;;;18.73;12.50;;;;;;;10.26;100.00;101552.34;6118776;23;20852;-84
2021/10/14 06:20:22;;;;;;;19.67;12.88;;;;;;;10.29;100.00;101542.78;6120093;23;20332;-85
2021/10/14 06:22:49;;;;;;;19.70;13.75;;;;;;;10.32;100.00;101550.63;6143704;23;20026;-85
2021/10/14 06:25:16;;;;;;;19.60;14.07;;;;;;;10.33;100.00;101555.00;6145194;23;20104;-85
2021/10/14 06:27:43;;;;;;;17.02;12.95;;;;;;;10.33;100.00;101553.25;6145654;23;20018;-85
2021/10/14 06:30:10;;;;;;;20.77;12.68;;;;;;;10.35;100.00;101555.88;6116116;23;20022;-85
2021/10/14 06:32:37;;;;;;;21.60;13.15;;;;;;;10.39;100.00;101555.94;6116690;23;20021;-85
2021/10/14 06:35:04;;;;;;;15.35;11.05;;;;;;;10.39;100.00;101552.44;6113428;23;20026;-85
2021/10/14 06:37:31;;;;;;;15.48;11.43;;;;;;;10.39;100.00;101555.94;6116100;23;20018;-84
2021/10/14 06:39:58;;;;;;;18.10;12.50;;;;;;;10.40;100.00;101547.25;6111923;23;20045;-85
2021/10/14 06:42:24;;;;;;;31.95;14.07;;;;;;;10.45;100.00;101544.63;6089977;23;20022;-86
2021/10/14 06:44:51;;;;;;;27.35;12.13;;;;;;;10.47;100.00;101552.50;6091748;23;20493;-86
2021/10/14 06:47:18;;;;;;;21.27;11.77;;;;;;;10.52;100.00;101554.28;6113289;23;20021;-84
2021/10/14 06:49:48;;;;;;;36.83;14.23;;;;;;;10.57;100.00;101546.44;6120465;23;20392;-84
2021/10/14 06:52:16;;;;;;;23.20;12.10;;;;;;;10.64;100.00;101549.97;6121125;23;20022;-85
2021/10/14 06:54:43;;;;;;;14.70;10.73;;;;;;;10.68;100.00;101546.53;6118614;23;20395;-84
2021/10/14 06:57:10;;;;;;;20.20;11.30;;;;;;;10.73;100.00;101545.66;6117905;23;20032;-84
2021/10/14 06:59:37;;;;;;;13.70;9.88;;;;;;;10.75;100.00;101549.19;6118284;23;20029;-85
2021/10/14 07:02:04;;;;;;;13.32;9.70;;;;;;;10.77;100.00;101546.56;6095759;23;20469;-84
2021/10/14 07:04:30;;;;;;;12.88;9.75;;;;;;;10.78;100.00;101552.66;6110986;23;20017;-86
2021/10/14 07:06:57;;;;;;;15.18;9.68;;;;;;;10.80;100.00;101553.56;6115812;23;20018;-85
2021/10/14 07:09:24;;;;;;;15.50;10.85;;;;;;;10.81;100.00;101548.31;6087911;23;20018;-84
2021/10/14 07:11:55;;;;;;;14.38;9.68;;;;;;;10.86;100.00;101548.31;6090278;23;20037;-86
2021/10/14 07:14:22;;;;;;;10.30;8.82;;;;;;;10.87;100.00;101553.59;6112649;23;20029;-86
2021/10/14 07:16:49;;;;;;;13.80;9.70;;;;;;;10.90;100.00;101550.97;6109281;23;20044;-84
2021/10/14 07:19:16;;;;;;;27.25;10.20;;;;;;;10.96;100.00;101552.72;6146100;23;20121;-85
2021/10/14 07:21:43;;;;;;;11.32;8.85;;;;;;;10.97;100.00;101543.16;6120760;23;20080;-83
2021/10/14 07:24:19;;;;;;;12.38;8.75;;;;;;;11.01;100.00;101545.75;6123036;23;20341;-84
2021/10/14 07:26:46;;;;;;;13.60;7.90;;;;;;;11.04;100.00;101544.91;6144988;23;20021;-85
2021/10/14 07:29:12;;;;;;;11.60;8.32;;;;;;;11.07;100.00;101551.03;6120218;23;20029;-84
2021/10/14 07:31:40;;;;;;;12.35;8.18;;;;;;;11.09;100.00;101554.53;6112695;23;20030;-84
2021/10/14 07:34:07;;;;;;;11.82;7.28;;;;;;;11.12;100.00;101550.16;6116472;23;20420;-84
2021/10/14 07:36:33;;;;;;;10.63;7.82;;;;;;;11.20;100.00;101559.81;6092228;23;20100;-84
2021/10/14 07:39:01;;;;;;;9.48;7.18;;;;;;;11.29;100.00;101556.34;6089940;23;20026;-85
2021/10/14 07:41:28;;;;;;;10.20;7.43;;;;;;;11.27;100.00;101552.84;6118359;23;20017;-84
2021/10/14 07:43:56;;;;;;;13.50;7.25;;;;;;;11.30;100.00;101549.34;6114492;23;20025;-83
2021/10/14 07:46:22;;;;;;;7.72;6.28;;;;;;;11.35;100.00;101558.09;6090199;23;20073;-84
2021/10/14 07:48:52;;;;;;;7.75;6.75;;;;;;;11.38;100.00;101553.75;6090871;23;20029;-84
2021/10/14 07:51:18;;;;;;;7.60;5.63;;;;;;;11.46;100.00;101556.38;6092544;23;20077;-84
2021/10/14 07:53:46;;;;;;;4.75;4.28;;;;;;;11.50;100.00;101544.13;6092178;23;20026;-86
2021/10/14 07:56:12;;;;;;;5.38;4.85;;;;;;;11.53;100.00;101559.88;6112873;23;20053;-84
2021/10/14 07:58:39;;;;;;;9.20;4.90;;;;;;;11.61;100.00;101552.03;6091360;23;20405;-84
2021/10/14 08:01:10;;;;;;;10.35;4.65;;;;;;;11.60;100.00;101556.38;6089269;23;20032;-85
2021/10/14 08:03:38;;;;;;;7.53;4.70;;;;;;;11.61;100.00;101552.91;6093056;23;20093;-84
2021/10/14 08:06:04;;;;;;;4.90;4.38;;;;;;;11.61;100.00;101559.91;6113492;23;20091;-85
2021/10/14 08:08:31;;;;;;;4.97;4.28;;;;;;;11.66;100.00;101548.53;6090811;23;20029;-84
2021/10/14 08:10:57;;;;;;;4.60;4.20;;;;;;;11.71;100.00;101554.66;6091233;23;20470;-85
2021/10/14 08:13:27;;;;;;;5.00;4.50;;;;;;;11.73;99.85;101554.66;6112847;23;20026;-84
2021/10/14 08:15:53;;;;;;;4.40;4.00;;;;;;;11.69;99.56;101559.06;6090202;23;20037;-85
2021/10/14 08:18:23;;;;;;;4.78;4.22;;;;;;;11.67;99.83;101558.16;6113830;23;20033;-85
2021/10/14 08:20:53;;;;;;;3.90;3.50;;;;;;;11.63;99.60;101563.38;6114874;23;20053;-85
2021/10/14 08:23:20;;;;;;;4.43;4.03;;;;;;;11.59;99.76;101552.03;6113338;23;20049;-84
2021/10/14 08:25:48;;;;;;;4.65;4.13;;;;;;;11.62;99.77;101561.66;6090405;23;20144;-85
2021/10/14 08:28:16;;;;;;;8.23;5.13;;;;;;;11.61;99.91;101559.91;6089921;23;20535;-84
2021/10/14 08:30:44;;;;;;;4.72;4.32;;;;;;;11.59;100.00;101558.16;6112912;23;20047;-85
2021/10/14 08:33:15;;;;;;;5.82;4.60;;;;;;;11.58;99.84;101566.03;6115187;23;20044;-85
2021/10/14 08:35:42;;;;;;;4.97;4.47;;;;;;;11.54;100.00;101565.13;6113544;23;20529;-85
2021/10/14 08:38:11;;;;;;;6.75;4.90;;;;;;;11.52;100.00;101569.47;6090164;23;20032;-85
2021/10/14 08:40:39;;;;;;;7.45;6.35;;;;;;;11.55;100.00;101563.38;6112778;23;20022;-86
2021/10/14 08:43:14;;;;;;;12.02;5.72;;;;;;;11.54;100.00;101567.75;6114674;23;20026;-86
2021/10/14 08:45:45;;;;;;;8.00;6.75;;;;;;;11.53;100.00;101562.50;6114396;23;20022;-86
2021/10/14 08:48:12;;;;;;;7.55;6.60;;;;;;;11.52;100.00;101563.38;6088574;23;20022;-84
2021/10/14 08:50:44;;;;;;;6.80;5.75;;;;;;;11.55;100.00;101563.38;6091366;23;20399;-84
2021/10/14 08:53:12;;;;;;;7.65;6.75;;;;;;;11.56;100.00;101552.91;6113730;23;20029;-84
2021/10/14 08:55:41;;;;;;;9.23;6.25;;;;;;;11.55;100.00;101551.16;6116725;23;20092;-85
2021/10/14 08:58:15;;;;;;;7.80;6.25;;;;;;;11.57;100.00;101566.88;6090208;23;20101;-84
2021/10/14 09:01:15;;;;;;;6.97;6.20;;;;;;;11.57;100.00;101561.63;6116079;23;20030;-85
2021/10/14 09:03:47;;;;;;;11.23;6.22;;;;;;;11.58;100.00;101560.78;6089496;23;20133;-85
2021/10/14 09:06:15;;;;;;;6.25;5.65;;;;;;;11.61;100.00;101554.66;6090599;23;20120;-85
2021/10/14 09:08:53;;;;;;;7.03;5.97;;;;;;;11.66;100.00;101552.91;6090140;23;20022;-85
2021/10/14 09:11:28;;;;;;;5.85;5.25;;;;;;;11.65;100.00;101556.41;6088845;23;20085;-84
2021/10/14 09:13:59;;;;;;;5.43;4.88;;;;;;;11.68;100.00;101553.78;6092009;23;20022;-84
2021/10/14 09:16:31;;;;;;;6.55;5.20;;;;;;;11.67;100.00;101554.69;6113155;23;20466;-84
2021/10/14 09:19:17;;;;;;;5.95;4.85;;;;;;;11.67;100.00;101558.16;6090048;23;20131;-86
2021/10/14 09:21:50;;;;;;;6.95;4.28;;;;;;;11.72;100.00;101552.91;6112972;23;20386;-86
2021/10/14 09:24:42;;;;;;;4.43;4.03;;;;;;;11.72;99.61;101550.28;6115651;23;20615;-84
2021/10/14 09:27:17;;;;;;;4.50;4.10;;;;;;;11.78;99.80;101563.41;6088313;23;20024;-86
2021/10/14 09:29:43;;;;;;;3.53;3.20;;;;;;;11.81;99.52;101550.31;6089799;23;20061;-86
2021/10/14 09:32:15;;;;;;;5.18;3.45;;;;;;;11.85;99.48;101549.44;6090411;23;20108;-86
2021/10/14 09:34:53;;;;;;;5.45;3.45;;;;;;;11.86;98.96;101555.53;6088291;23;20022;-85
2021/10/14 09:37:19;;;;;;;4.40;2.97;;;;;;;11.83;99.38;101545.91;6090657;23;20049;-84
2021/10/14 09:40:01;;;;;;;3.83;2.95;;;;;;;11.83;99.39;101559.03;6137474;23;20026;-85
2021/10/14 09:42:50;;;;;;;2.60;2.40;;;;;;;11.78;99.71;101552.91;6115019;23;20026;-86
2021/10/14 09:45:28;;;;;;;2.13;1.95;;;;;;;11.84;99.17;101552.06;6088236;23;20025;-85
2021/10/14 09:48:04;;;;;;;2.70;2.50;;;;;;;11.87;99.15;101555.53;6090840;23;20033;-86
2021/10/14 09:50:32;;;;;;;2.78;2.10;;;;;;;11.88;99.39;101553.81;6113672;23;20105;-82
2021/10/14 09:53:06;;;;;;;1.95;1.77;;;;;;;11.88;99.13;101559.06;6090489;23;20088;-84
2021/10/14 09:55:33;;;;;;;3.00;1.88;;;;;;;11.84;99.60;101554.69;6112836;23;20026;-86
2021/10/14 09:58:01;;;;;;;1.98;1.73;;;;;;;11.88;99.46;101546.78;6090489;23;20018;-84
2021/10/14 10:00:30;;;;;;;2.88;2.17;;;;;;;11.88;98.89;101559.06;6115870;23;20414;-85
2021/10/14 10:02:57;;;;;;;2.30;2.10;;;;;;;11.87;99.15;101558.16;6113931;23;20026;-84
2021/10/14 10:05:24;;;;;;;2.72;2.50;;;;;;;11.96;98.87;101559.09;6116810;23;20030;-86
2021/10/14 10:07:58;;;;;;;2.22;2.00;;;;;;;12.08;98.74;101554.72;6092709;23;20077;-85
2021/10/14 10:10:28;;;;;;;3.95;2.30;;;;;;;12.23;98.45;101564.31;6090796;23;20030;-84
2021/10/14 10:12:58;;;;;;;5.25;3.53;;;;;;;12.45;96.88;101560.75;6113322;23;20041;-84
2021/10/14 10:16:17;;;;;;;4.45;3.50;;;;;;;12.58;95.20;101554.63;6089284;23;20354;-85
2021/10/14 10:18:58;;;;;;;5.45;4.15;;;;;;;12.53;95.17;101554.63;6030766;23;20082;-84
2021/10/14 10:21:30;;;;;;;4.80;3.28;;;;;;;12.56;95.57;101559.84;6090384;23;20350;-83
2021/10/14 10:24:03;;;;;;;5.57;4.40;;;;;;;12.63;95.16;101550.19;6114452;23;20049;-84
2021/10/14 10:26:35;;;;;;;5.95;4.70;;;;;;;12.69;94.07;101550.19;6111459;23;20028;-84
2021/10/14 10:29:14;;;;;;;7.55;5.40;;;;;;;12.63;94.66;101550.19;6113064;23;20150;-84
2021/10/14 10:31:47;;;;;;;5.38;4.18;;;;;;;12.62;94.35;101552.84;6135664;23;20080;-86
2021/10/14 10:34:34;;;;;;;8.18;5.15;;;;;;;12.66;94.41;101549.31;6138902;23;20026;-86
2021/10/14 10:37:25;;;;;;;8.25;6.03;;;;;;;12.63;94.12;101539.69;6137102;23;20085;-84
2021/10/14 10:40:09;;;;;;;9.60;5.60;;;;;;;12.67;93.56;101538.84;6106329;23;20028;-84
2021/10/14 10:43:06;;;;;;;7.25;6.07;;;;;;;12.75;94.02;101544.06;6113831;23;20030;-84
2021/10/14 10:45:41;;;;;;;10.43;6.85;;;;;;;12.88;92.62;101532.63;6089105;23;20032;-84
2021/10/14 10:48:08;;;;;;;11.05;5.97;;;;;;;13.00;92.45;101529.06;6136512;23;20021;-86
2021/10/14 10:50:35;;;;;;;8.57;6.50;;;;;;;13.06;91.06;101523.78;6089282;23;20632;-86
2021/10/14 10:53:39;;;;;;;10.95;6.40;;;;;;;12.99;90.86;101519.41;6116234;23;20050;-84
2021/10/14 10:56:07;;;;;;;;;;;;;;;13.01;90.54;101514.13;6077867;23;20028;-84
2021/10/14 10:58:46;;;;;;;7.78;6.03;;;;;;;13.04;91.40;101516.78;6091748;23;19921;-85
2021/10/14 11:01:19;;;;;;;8.63;6.38;;;;;;;13.11;90.91;101518.47;6113041;23;20033;-84
2021/10/14 11:04:06;;;;;;;8.07;6.13;;;;;;;13.16;91.11;101515.84;6091782;23;20054;-86
2021/10/14 11:06:35;;;;;;;8.70;5.88;;;;;;;13.15;91.11;101508.81;6113497;23;20457;-86
2021/10/14 11:09:06;;;;;;;9.50;6.80;;;;;;;13.11;90.81;101502.69;6091924;23;20024;-84
2021/10/14 11:11:37;;;;;;;10.23;6.10;;;;;;;12.99;91.19;101506.28;6089756;23;20344;-84
2021/10/14 11:14:06;;;;;;;12.43;8.05;;;;;;;13.01;91.21;101504.53;6092196;23;20383;-85
2021/10/14 11:16:37;;;;;;;10.50;7.15;;;;;;;13.02;90.61;101497.50;6116129;23;20030;-85
2021/10/14 11:19:07;;;;;;;13.88;7.32;;;;;;;13.01;90.92;101498.38;6102350;23;20020;-85
2021/10/14 11:21:36;;;;;;;12.13;7.78;;;;;;;12.96;90.90;101493.16;6126720;23;20085;-86
2021/10/14 11:24:02;;;;;;;13.50;7.90;;;;;;;12.97;90.61;101492.28;6122168;23;20112;-86
2021/10/14 11:26:35;;;;;;;11.30;7.80;;;;;;;12.90;91.08;101482.66;6090543;23;20104;-85